createdAt,value
2019-01-18T00:01:18.430Z,1.30
2019-01-18T00:03:45.900Z,1.87
2019-01-18T00:06:13.364Z,1.63
2019-01-18T00:08:41.456Z,2.43
2019-01-18T00:11:09.013Z,1.87
2019-01-18T00:13:36.476Z,1.70
2019-01-18T00:16:03.938Z,2.07
2019-01-18T00:18:31.388Z,1.87
2019-01-18T00:20:59.624Z,1.63
2019-01-18T00:23:27.089Z,1.33
2019-01-18T00:25:54.588Z,1.73
2019-01-18T00:28:22.161Z,1.60
2019-01-18T00:30:49.626Z,1.23
2019-01-18T00:33:17.877Z,1.27
2019-01-18T00:35:45.335Z,1.47
2019-01-18T00:38:12.779Z,1.50
2019-01-18T00:40:40.275Z,1.73
2019-01-18T00:43:07.736Z,1.20
2019-01-18T00:45:35.212Z,1.60
2019-01-18T00:48:03.283Z,1.27
2019-01-18T00:50:30.859Z,1.20
2019-01-18T00:52:58.326Z,1.50
2019-01-18T00:55:27.359Z,0.93
2019-01-18T00:57:54.876Z,1.30
2019-01-18T01:00:24.309Z,1.53
2019-01-18T01:02:51.830Z,1.20
2019-01-18T01:05:19.301Z,1.50
2019-01-18T01:07:46.883Z,1.00
2019-01-18T01:10:14.343Z,1.00
2019-01-18T01:12:41.886Z,1.20
2019-01-18T01:15:15.322Z,1.03
2019-01-18T01:17:42.779Z,1.30
2019-01-18T01:20:11.010Z,1.30
2019-01-18T01:22:38.486Z,1.10
2019-01-18T01:25:05.955Z,1.07
2019-01-18T01:27:33.437Z,0.83
2019-01-18T01:30:01.707Z,0.90
2019-01-18T01:32:29.162Z,1.00
2019-01-18T01:34:56.714Z,1.00
2019-01-18T01:37:24.197Z,1.80
2019-01-18T01:39:51.666Z,1.20
2019-01-18T01:42:19.893Z,1.00
2019-01-18T01:44:47.349Z,0.93
2019-01-18T01:47:14.842Z,1.10
2019-01-18T01:49:42.313Z,0.93
2019-01-18T01:52:10.708Z,1.33
2019-01-18T01:54:38.197Z,0.97
2019-01-18T01:57:06.425Z,1.10
2019-01-18T01:59:33.890Z,1.20
2019-01-18T02:02:01.465Z,1.03
2019-01-18T02:04:28.936Z,1.37
2019-01-18T02:06:56.472Z,1.57
2019-01-18T02:09:23.923Z,1.33
2019-01-18T02:11:51.381Z,1.53
2019-01-18T02:14:18.843Z,1.30
2019-01-18T02:16:46.329Z,1.00
2019-01-18T02:19:14.354Z,1.40
2019-01-18T02:21:41.824Z,1.20
2019-01-18T02:24:09.287Z,1.17
2019-01-18T02:26:36.735Z,1.20
2019-01-18T02:29:04.202Z,1.30
2019-01-18T02:31:31.639Z,1.30
2019-01-18T02:33:59.887Z,1.20
2019-01-18T02:36:27.410Z,1.07
2019-01-18T02:38:54.880Z,1.40
2019-01-18T02:41:22.339Z,0.90
2019-01-18T02:43:49.790Z,0.93
2019-01-18T02:46:17.302Z,1.20
2019-01-18T02:48:44.776Z,1.33
2019-01-18T02:51:13.044Z,0.83
2019-01-18T02:53:40.505Z,1.00
2019-01-18T02:56:07.962Z,0.97
2019-01-18T02:58:35.409Z,1.40
2019-01-18T03:01:03.797Z,0.83
2019-01-18T03:03:31.268Z,1.17
2019-01-18T03:05:58.730Z,0.80
2019-01-18T03:08:26.180Z,1.10
2019-01-18T03:10:53.646Z,1.30
2019-01-18T03:13:21.111Z,1.33
2019-01-18T03:15:48.564Z,1.20
2019-01-18T03:18:16.030Z,1.07
2019-01-18T03:20:43.501Z,0.90
2019-01-18T03:23:10.961Z,1.20
2019-01-18T03:25:38.533Z,1.00
2019-01-18T03:28:05.999Z,1.00
2019-01-18T03:30:33.548Z,1.10
2019-01-18T03:33:01.028Z,1.03
2019-01-18T03:35:28.488Z,1.10
2019-01-18T03:37:56.042Z,0.97
2019-01-18T03:40:23.505Z,1.10
2019-01-18T03:42:50.958Z,1.10
2019-01-18T03:45:18.427Z,1.20
2019-01-18T03:47:45.934Z,1.20
2019-01-18T03:50:17.660Z,1.23
2019-01-18T03:52:45.092Z,1.30
2019-01-18T03:55:12.545Z,1.30
2019-01-18T03:57:40.090Z,1.13
2019-01-18T04:00:09.129Z,1.00
2019-01-18T04:02:36.601Z,1.00
2019-01-18T04:05:04.161Z,0.90
2019-01-18T04:07:31.613Z,1.10
2019-01-18T04:09:59.078Z,1.17
2019-01-18T04:12:26.633Z,1.33
2019-01-18T04:14:54.108Z,1.27
2019-01-18T04:17:21.569Z,1.50
2019-01-18T04:19:49.128Z,1.17
2019-01-18T04:22:16.698Z,1.10
2019-01-18T04:24:44.253Z,1.20
2019-01-18T04:27:11.830Z,1.20
2019-01-18T04:29:39.380Z,1.30
2019-01-18T04:32:06.954Z,1.00
2019-01-18T04:34:34.526Z,1.50
2019-01-18T04:37:04.421Z,1.10
2019-01-18T04:39:31.876Z,1.27
2019-01-18T04:41:59.454Z,1.00
2019-01-18T04:44:26.922Z,1.50
2019-01-18T04:46:54.368Z,1.17
2019-01-18T04:49:21.937Z,1.40
2019-01-18T04:51:49.395Z,1.27
2019-01-18T04:54:16.857Z,1.30
2019-01-18T04:56:44.317Z,1.20
2019-01-18T04:59:11.789Z,1.20
2019-01-18T05:01:39.246Z,1.10
2019-01-18T05:04:06.705Z,1.33
2019-01-18T05:06:34.168Z,1.50
2019-01-18T05:09:01.622Z,1.23
2019-01-18T05:11:29.088Z,1.20
2019-01-18T05:13:56.561Z,1.60
2019-01-18T05:16:24.059Z,1.30
2019-01-18T05:18:52.273Z,1.07
2019-01-18T05:21:19.736Z,1.10
2019-01-18T05:23:47.227Z,1.10
2019-01-18T05:26:14.699Z,1.27
2019-01-18T05:28:42.462Z,1.43
2019-01-18T05:31:10.018Z,1.50
2019-01-18T05:33:37.588Z,1.20
2019-01-18T05:36:05.136Z,1.23
2019-01-18T05:38:32.584Z,1.30
2019-01-18T05:41:00.031Z,1.40
2019-01-18T05:43:27.494Z,1.53
2019-01-18T05:45:54.945Z,1.70
2019-01-18T05:48:22.447Z,1.10
2019-01-18T05:50:49.904Z,1.43
2019-01-18T05:53:17.357Z,1.20
2019-01-18T05:55:44.850Z,1.10
2019-01-18T05:58:13.706Z,1.20
2019-01-18T06:00:41.166Z,1.37
2019-01-18T06:03:08.633Z,1.73
2019-01-18T06:05:36.100Z,1.33
2019-01-18T06:08:03.764Z,1.50
2019-01-18T06:10:31.250Z,1.40
2019-01-18T06:12:58.822Z,1.27
2019-01-18T06:15:27.053Z,1.30
2019-01-18T06:17:54.608Z,1.43
2019-01-18T06:20:22.113Z,1.50
2019-01-18T06:22:49.570Z,1.30
2019-01-18T06:25:17.382Z,1.33
2019-01-18T06:27:45.629Z,1.17
2019-01-18T06:30:16.879Z,1.50
2019-01-18T06:32:44.446Z,1.20
2019-01-18T06:35:11.907Z,1.40
2019-01-18T06:37:39.369Z,1.10
2019-01-18T06:40:15.363Z,1.00
2019-01-18T06:42:43.638Z,1.40
2019-01-18T06:45:11.875Z,1.50
2019-01-18T06:47:39.328Z,1.60
2019-01-18T06:50:08.084Z,1.50
2019-01-18T06:52:36.402Z,1.27
2019-01-18T06:55:04.656Z,1.30
2019-01-18T06:57:32.151Z,1.80
2019-01-18T06:59:59.617Z,1.70
2019-01-18T07:02:27.067Z,1.30
2019-01-18T07:04:54.535Z,1.40
2019-01-18T07:07:22.105Z,1.43
2019-01-18T07:09:49.583Z,1.50
2019-01-18T07:12:17.811Z,1.60
2019-01-18T07:14:45.311Z,1.80
2019-01-18T07:17:13.546Z,1.50
2019-01-18T07:19:41.010Z,1.40
2019-01-18T07:22:08.467Z,1.60
2019-01-18T07:24:35.964Z,1.77
2019-01-18T07:27:03.749Z,1.00
2019-01-18T07:29:31.236Z,1.40
2019-01-18T07:31:59.484Z,2.33
2019-01-18T07:34:26.949Z,1.50
2019-01-18T07:36:55.919Z,1.70
2019-01-18T07:39:23.373Z,1.57
2019-01-18T07:41:50.848Z,1.53
2019-01-18T07:44:18.319Z,1.70
2019-01-18T07:46:45.801Z,1.57
2019-01-18T07:49:14.100Z,1.43
2019-01-18T07:51:42.348Z,1.70
2019-01-18T07:54:10.679Z,1.30
2019-01-18T07:56:38.157Z,1.40
2019-01-18T07:59:05.662Z,1.53
2019-01-18T08:01:33.127Z,1.70
2019-01-18T08:04:00.693Z,1.50
2019-01-18T08:06:28.967Z,1.47
2019-01-18T08:08:56.525Z,1.73
2019-01-18T08:11:24.026Z,1.60
2019-01-18T08:13:52.271Z,1.50
2019-01-18T08:16:19.823Z,1.70
2019-01-18T08:18:47.283Z,1.53
2019-01-18T08:21:14.850Z,1.80
2019-01-18T08:23:42.421Z,1.37
2019-01-18T08:26:09.875Z,1.30
2019-01-18T08:28:37.341Z,1.80
2019-01-18T08:31:04.901Z,1.30
2019-01-18T08:33:32.386Z,1.60
2019-01-18T08:36:00.639Z,1.87
2019-01-18T08:38:28.119Z,1.40
2019-01-18T08:40:55.676Z,1.17
2019-01-18T08:43:23.141Z,1.70
2019-01-18T08:45:52.126Z,2.40
2019-01-18T08:48:19.577Z,1.90
2019-01-18T08:50:47.046Z,1.43
2019-01-18T08:53:14.530Z,1.50
2019-01-18T08:55:41.984Z,1.77
2019-01-18T08:58:09.460Z,1.63
2019-01-18T09:00:37.005Z,1.53
2019-01-18T09:03:04.475Z,1.23
2019-01-18T09:05:32.026Z,1.23
2019-01-18T09:07:59.582Z,1.87
2019-01-18T09:10:27.165Z,1.40
2019-01-18T09:12:56.120Z,1.30
2019-01-18T09:15:23.576Z,1.40
2019-01-18T09:17:51.033Z,1.70
2019-01-18T09:20:18.534Z,1.77
2019-01-18T09:22:45.985Z,1.30
2019-01-18T09:25:13.461Z,1.50
2019-01-18T09:27:40.913Z,1.53
2019-01-18T09:30:09.199Z,1.77
2019-01-18T09:32:36.684Z,1.50
2019-01-18T09:35:04.239Z,1.63
2019-01-18T09:37:31.745Z,1.70
2019-01-18T09:39:59.199Z,1.30
2019-01-18T09:42:26.704Z,1.40
2019-01-18T09:44:54.162Z,2.00
2019-01-18T09:47:21.615Z,1.60
2019-01-18T09:49:49.103Z,1.93
2019-01-18T09:52:16.554Z,2.00
2019-01-18T09:54:44.122Z,2.10
2019-01-18T09:57:11.572Z,1.62
2019-01-18T09:59:39.040Z,1.50
2019-01-18T10:02:06.501Z,1.87
2019-01-18T10:04:33.973Z,1.47
2019-01-18T10:07:01.416Z,1.53
2019-01-18T10:09:28.880Z,1.53
2019-01-18T10:11:56.335Z,1.60
2019-01-18T10:14:23.801Z,1.50
2019-01-18T10:16:51.283Z,1.53
2019-01-18T10:19:18.844Z,1.57
2019-01-18T10:21:46.701Z,1.53
2019-01-18T10:24:13.810Z,1.70
2019-01-18T10:26:42.049Z,1.70
2019-01-18T10:29:09.489Z,2.00
2019-01-18T10:31:36.945Z,1.60
2019-01-18T10:34:04.410Z,1.47
2019-01-18T10:36:31.900Z,1.60
2019-01-18T10:38:59.465Z,1.90
2019-01-18T10:41:27.051Z,1.90
2019-01-18T10:43:55.294Z,1.43
2019-01-18T10:46:22.749Z,1.60
2019-01-18T10:48:50.201Z,1.90
2019-01-18T10:51:17.696Z,2.07
2019-01-18T10:53:45.152Z,1.60
2019-01-18T10:56:12.600Z,1.77
2019-01-18T10:58:40.077Z,1.40
2019-01-18T11:01:08.659Z,1.73
2019-01-18T11:03:36.165Z,2.33
2019-01-18T11:06:04.603Z,2.10
2019-01-18T11:08:32.087Z,1.90
2019-01-18T11:10:59.592Z,1.80
2019-01-18T11:13:27.101Z,1.80
2019-01-18T11:15:55.320Z,1.80
2019-01-18T11:18:22.890Z,2.13
2019-01-18T11:20:51.143Z,1.87
2019-01-18T11:23:18.667Z,1.97
2019-01-18T11:25:46.892Z,2.07
2019-01-18T11:28:15.884Z,1.90
2019-01-18T11:30:43.342Z,1.63
2019-01-18T11:33:10.883Z,2.43
2019-01-18T11:35:38.363Z,2.30
2019-01-18T11:38:05.857Z,2.13
2019-01-18T11:40:33.313Z,1.80
2019-01-18T11:43:00.835Z,2.07
2019-01-18T11:45:28.284Z,2.10
2019-01-18T11:47:55.855Z,2.00
2019-01-18T11:50:23.412Z,2.07
2019-01-18T11:52:50.906Z,2.13
2019-01-18T11:55:19.248Z,1.77
2019-01-18T11:57:46.699Z,2.27
2019-01-18T12:00:17.625Z,2.30
2019-01-18T12:02:45.141Z,2.33
2019-01-18T12:05:12.706Z,2.43
2019-01-18T12:07:40.933Z,2.30
2019-01-18T12:10:10.332Z,2.13
2019-01-18T12:12:37.796Z,2.67
2019-01-18T12:15:05.265Z,2.83
2019-01-18T12:17:32.729Z,2.50
2019-01-18T12:20:00.195Z,2.77
2019-01-18T12:22:27.649Z,2.90
2019-01-18T12:24:55.113Z,2.87
2019-01-18T12:27:22.587Z,2.93
2019-01-18T12:29:50.055Z,2.60
2019-01-18T12:32:17.513Z,2.80
2019-01-18T12:34:44.985Z,3.30
2019-01-18T12:37:12.492Z,3.27
2019-01-18T12:39:40.723Z,2.83
2019-01-18T12:42:08.315Z,3.20
2019-01-18T12:44:35.776Z,3.13
2019-01-18T12:47:03.733Z,3.50
2019-01-18T12:49:31.205Z,2.60
2019-01-18T12:51:58.663Z,3.10
2019-01-18T12:54:26.133Z,3.67
2019-01-18T12:56:55.087Z,3.33
2019-01-18T12:59:22.583Z,3.33
2019-01-18T13:01:50.831Z,3.80
2019-01-18T13:04:18.318Z,3.30
2019-01-18T13:06:45.775Z,2.90
2019-01-18T13:09:13.268Z,3.07
2019-01-18T13:11:41.505Z,3.17
2019-01-18T13:14:09.021Z,2.80
2019-01-18T13:16:37.266Z,3.00
2019-01-18T13:19:04.755Z,3.40
2019-01-18T13:21:32.975Z,3.03
2019-01-18T13:24:00.429Z,3.13
2019-01-18T13:26:27.896Z,2.63
2019-01-18T13:28:55.365Z,3.53
2019-01-18T13:31:22.865Z,3.13
2019-01-18T13:33:50.321Z,3.13
2019-01-18T13:36:18.026Z,3.40
2019-01-18T13:38:46.254Z,3.20
2019-01-18T13:41:13.716Z,3.50
2019-01-18T13:43:41.295Z,2.80
2019-01-18T13:46:08.745Z,3.10
2019-01-18T13:48:36.241Z,3.03
2019-01-18T13:51:04.565Z,3.15
2019-01-18T13:53:32.031Z,3.20
2019-01-18T13:55:59.527Z,3.00
2019-01-18T13:58:26.973Z,2.70
2019-01-18T14:00:54.545Z,2.10
2019-01-18T14:03:22.026Z,2.83
2019-01-18T14:05:49.584Z,3.07
2019-01-18T14:08:17.135Z,2.70
2019-01-18T14:10:44.613Z,3.10
2019-01-18T14:13:12.161Z,3.00
2019-01-18T14:15:39.634Z,3.37
2019-01-18T14:18:07.101Z,2.57
2019-01-18T14:20:34.582Z,3.07
2019-01-18T14:23:03.766Z,2.77
2019-01-18T14:25:31.341Z,2.43
2019-01-18T14:27:59.593Z,3.13
2019-01-18T14:30:27.614Z,3.07
2019-01-18T14:32:55.891Z,2.87
2019-01-18T14:35:22.603Z,2.50
2019-01-18T14:37:50.074Z,2.97
2019-01-18T14:40:18.324Z,2.80
2019-01-18T14:42:45.773Z,3.40
2019-01-18T14:45:18.179Z,2.47
2019-01-18T14:47:45.793Z,2.40
2019-01-18T14:50:13.459Z,4.00
2019-01-18T14:52:40.906Z,3.00
2019-01-18T14:55:08.392Z,2.85
2019-01-18T14:57:35.843Z,3.17
2019-01-18T15:00:16.620Z,3.22
2019-01-18T15:02:44.104Z,3.03
2019-01-18T15:05:11.571Z,2.80
2019-01-18T15:07:39.035Z,3.27
2019-01-18T15:10:17.359Z,3.10
2019-01-18T15:12:45.625Z,2.60
2019-01-18T15:15:13.102Z,2.93
2019-01-18T15:17:40.563Z,2.87
2019-01-18T15:20:24.052Z,3.30
2019-01-18T15:22:51.510Z,2.70
2019-01-18T15:25:18.982Z,2.80
2019-01-18T15:27:46.434Z,3.33
2019-01-18T15:30:14.853Z,3.20
2019-01-18T15:32:42.413Z,3.17
2019-01-18T15:35:09.988Z,3.17
2019-01-18T15:37:37.455Z,3.07
2019-01-18T15:40:05.008Z,3.00
2019-01-18T15:42:32.473Z,2.80
2019-01-18T15:44:59.981Z,3.57
2019-01-18T15:47:27.435Z,3.20
2019-01-18T15:49:54.948Z,2.80
2019-01-18T15:52:22.408Z,3.10
2019-01-18T15:54:49.877Z,2.50
2019-01-18T15:57:18.312Z,3.00
2019-01-18T15:59:44.973Z,3.40
2019-01-18T16:02:12.436Z,2.80
2019-01-18T16:04:39.926Z,3.00
2019-01-18T16:07:07.440Z,2.87
2019-01-18T16:09:34.953Z,3.33
2019-01-18T16:12:02.429Z,2.93
2019-01-18T16:14:30.665Z,2.93
2019-01-18T16:16:58.169Z,2.90
2019-01-18T16:19:25.727Z,3.00
2019-01-18T16:21:54.043Z,3.63
2019-01-18T16:24:22.304Z,3.37
2019-01-18T16:26:50.543Z,3.53
2019-01-18T16:29:17.987Z,3.60
2019-01-18T16:31:45.540Z,3.30
2019-01-18T16:34:13.003Z,3.37
2019-01-18T16:36:40.488Z,3.63
2019-01-18T16:39:07.971Z,3.90
2019-01-18T16:41:35.429Z,3.57
2019-01-18T16:44:03.910Z,3.17
2019-01-18T16:46:31.375Z,3.60
2019-01-18T16:48:59.325Z,3.83
2019-01-18T16:51:26.786Z,3.23
2019-01-18T16:53:54.240Z,4.13
2019-01-18T16:56:21.699Z,4.37
2019-01-18T16:58:49.157Z,3.87
2019-01-18T17:01:16.666Z,3.97
2019-01-18T17:03:44.149Z,3.70
2019-01-18T17:06:11.688Z,3.50
2019-01-18T17:08:39.246Z,4.00
2019-01-18T17:11:06.721Z,3.33
2019-01-18T17:13:34.193Z,3.53
2019-01-18T17:16:01.641Z,3.03
2019-01-18T17:18:29.097Z,4.10
2019-01-18T17:20:56.581Z,3.43
2019-01-18T17:23:24.041Z,3.60
2019-01-18T17:25:51.512Z,3.90
2019-01-18T17:28:19.729Z,3.83
2019-01-18T17:30:47.454Z,4.23
2019-01-18T17:33:15.669Z,3.30
2019-01-18T17:35:46.065Z,4.40
2019-01-18T17:38:20.184Z,3.50
2019-01-18T17:40:55.184Z,3.77
2019-01-18T17:43:25.525Z,3.80
2019-01-18T17:48:47.147Z,5.97
2019-01-18T17:51:18.179Z,4.80
2019-01-18T17:53:54.441Z,3.90
2019-01-18T17:56:41.585Z,3.90
2019-01-18T17:59:39.548Z,4.47
2019-01-18T18:02:28.377Z,4.10
2019-01-18T18:08:04.375Z,6.43
2019-01-18T18:13:52.026Z,6.30
2019-01-18T18:16:21.439Z,5.90
2019-01-18T18:19:05.401Z,5.00
2019-01-18T18:21:42.468Z,4.30
2019-01-18T18:24:25.467Z,4.43
2019-01-18T18:27:01.508Z,5.07
2019-01-18T18:29:32.554Z,4.63
2019-01-18T18:32:24.794Z,4.33
2019-01-18T18:34:58.061Z,4.53
2019-01-18T18:37:40.324Z,4.63
2019-01-18T18:40:20.049Z,4.80
2019-01-18T18:42:50.090Z,4.43
2019-01-18T18:45:39.032Z,4.83
2019-01-18T18:48:13.001Z,4.93
2019-01-18T18:50:48.068Z,4.90
2019-01-18T18:56:19.536Z,7.40
2019-01-18T18:58:57.633Z,5.73
2019-01-18T19:04:45.243Z,8.70
2019-01-18T19:07:18.824Z,6.67
2019-01-18T19:09:53.107Z,6.13
2019-01-18T19:12:34.952Z,5.50
2019-01-18T19:15:15.041Z,6.20
2019-01-18T19:17:50.069Z,6.00
2019-01-18T19:20:34.206Z,5.87
2019-01-18T19:23:05.079Z,5.80
2019-01-18T19:25:38.068Z,6.07
2019-01-18T19:28:09.162Z,5.87
2019-01-18T19:30:46.377Z,6.83
2019-01-18T19:33:16.564Z,5.17
2019-01-18T19:35:45.848Z,6.30
2019-01-18T19:38:34.073Z,5.17
2019-01-18T19:41:03.510Z,5.70
2019-01-18T19:43:42.527Z,6.03
2019-01-18T19:46:15.491Z,5.07
2019-01-18T19:52:10.501Z,9.20
2019-01-18T19:57:43.729Z,9.57
2019-01-18T20:00:15.555Z,7.47
2019-01-18T20:02:43.772Z,6.67
2019-01-18T20:05:20.132Z,5.93
2019-01-18T20:10:44.293Z,10.32
2019-01-18T20:13:18.150Z,6.57
2019-01-18T20:15:47.225Z,6.53
2019-01-18T20:18:15.471Z,6.43
2019-01-18T20:21:04.488Z,5.97
2019-01-18T20:23:42.646Z,5.77
2019-01-18T20:26:13.364Z,5.90
2019-01-18T20:28:57.480Z,6.33
2019-01-18T20:31:31.538Z,5.90
2019-01-18T20:34:00.947Z,6.87
2019-01-18T20:39:32.093Z,10.60
2019-01-18T20:42:05.215Z,7.03
2019-01-18T20:44:37.280Z,7.17
2019-01-18T20:47:25.042Z,6.67
2019-01-18T20:49:59.184Z,6.60
2019-01-18T20:52:47.229Z,6.13
2019-01-18T20:55:14.711Z,7.07
2019-01-18T20:57:48.494Z,6.77
2019-01-18T21:03:36.792Z,10.70
2019-01-18T21:06:09.034Z,7.20
2019-01-18T21:08:39.106Z,7.43
2019-01-18T21:11:13.403Z,7.03
2019-01-18T21:13:52.416Z,6.73
2019-01-18T21:16:34.600Z,5.83
2019-01-18T21:22:20.873Z,10.55
2019-01-18T21:24:49.195Z,7.60
2019-01-18T21:27:36.234Z,6.57
2019-01-18T21:30:05.501Z,6.23
2019-01-18T21:32:45.288Z,6.27
2019-01-18T21:35:17.166Z,6.87
2019-01-18T21:37:50.413Z,5.87
2019-01-18T21:40:24.313Z,6.63
2019-01-18T21:43:10.376Z,7.17
2019-01-18T21:45:46.443Z,6.13
2019-01-18T21:48:13.894Z,6.70
2019-01-18T21:53:46.496Z,11.45
2019-01-18T21:56:41.709Z,8.47
2019-01-18T21:59:12.898Z,7.53
2019-01-18T22:01:41.087Z,6.57
2019-01-18T22:04:12.109Z,6.67
2019-01-18T22:06:43.137Z,6.60
2019-01-18T22:09:10.610Z,7.53
2019-01-18T22:11:46.364Z,8.43
2019-01-18T22:14:20.573Z,7.43
2019-01-18T22:19:52.870Z,11.63
2019-01-18T22:22:27.268Z,7.67
2019-01-18T22:27:58.542Z,11.85
2019-01-18T22:30:42.567Z,8.20
2019-01-18T22:33:22.518Z,7.77
2019-01-18T22:39:03.854Z,12.20
2019-01-18T22:41:37.933Z,9.73
2019-01-18T22:44:27.057Z,8.23
2019-01-18T22:47:03.005Z,7.80
2019-01-18T22:49:43.089Z,8.37
2019-01-18T22:55:36.615Z,12.60
2019-01-18T22:58:34.018Z,9.10
2019-01-18T23:01:06.139Z,7.77
2019-01-18T23:03:36.958Z,8.07
2019-01-18T23:06:19.302Z,8.67
2019-01-18T23:12:32.787Z,12.23
2019-01-18T23:15:21.854Z,8.27
2019-01-18T23:17:57.491Z,8.97
2019-01-18T23:20:45.694Z,9.47
2019-01-18T23:23:29.744Z,7.97
2019-01-18T23:26:02.041Z,7.93
2019-01-18T23:28:36.155Z,8.50
2019-01-18T23:31:05.327Z,7.93
2019-01-18T23:33:34.437Z,9.20
2019-01-18T23:36:06.341Z,7.70
2019-01-18T23:38:49.110Z,7.57
2019-01-18T23:41:26.397Z,8.00
2019-01-18T23:43:53.890Z,7.40
2019-01-18T23:46:28.012Z,9.13
2019-01-18T23:49:01.682Z,8.80
2019-01-18T23:51:42.020Z,7.77
2019-01-18T23:54:16.458Z,9.07
2019-01-18T23:59:47.505Z,14.93
